createdAt,value
2022-09-02T00:01:45.407Z,49.21
2022-09-02T00:04:15.430Z,49.27
2022-09-02T00:06:43.200Z,49.29
2022-09-02T00:09:13.052Z,49.42
2022-09-02T00:11:41.589Z,49.82
2022-09-02T00:14:13.042Z,49.72
2022-09-02T00:16:41.943Z,49.58
2022-09-02T00:19:08.679Z,49.79
2022-09-02T00:21:35.882Z,49.54
2022-09-02T00:24:05.178Z,49.16
2022-09-02T00:26:31.895Z,49.55
2022-09-02T00:28:58.614Z,49.42
2022-09-02T00:31:27.638Z,49.25
2022-09-02T00:33:55.014Z,49.38
2022-09-02T00:36:22.295Z,49.36
2022-09-02T00:38:49.142Z,49.57
2022-09-02T00:41:15.720Z,49.55
2022-09-02T00:43:42.589Z,49.29
2022-09-02T00:46:09.442Z,49.10
2022-09-02T00:48:41.395Z,49.55
2022-09-02T00:51:11.734Z,49.59
2022-09-02T00:53:40.807Z,49.60
2022-09-02T00:56:14.041Z,49.70
2022-09-02T00:58:43.473Z,49.83
2022-09-02T01:01:11.776Z,49.71
2022-09-02T01:03:40.580Z,49.81
2022-09-02T01:06:08.302Z,49.82
2022-09-02T01:08:39.335Z,49.98
2022-09-02T01:11:07.185Z,50.50
2022-09-02T01:13:39.434Z,50.44
2022-09-02T01:16:31.151Z,50.76
2022-09-02T01:19:02.559Z,50.81
2022-09-02T01:21:29.172Z,50.87
2022-09-02T01:23:55.899Z,51.18
2022-09-02T01:26:22.812Z,51.26
2022-09-02T01:28:49.393Z,51.24
2022-09-02T01:31:16.061Z,51.38
2022-09-02T01:33:42.842Z,51.32
2022-09-02T01:36:11.948Z,51.42
2022-09-02T01:38:38.839Z,51.38
2022-09-02T01:41:05.820Z,51.07
2022-09-02T01:43:32.395Z,51.18
2022-09-02T01:46:00.162Z,51.38
2022-09-02T01:48:27.210Z,51.16
2022-09-02T01:51:01.312Z,51.40
2022-09-02T01:53:29.120Z,51.40
2022-09-02T01:55:55.911Z,51.21
2022-09-02T01:58:23.329Z,51.15
2022-09-02T02:00:50.350Z,51.21
2022-09-02T02:03:17.607Z,51.13
2022-09-02T02:05:45.070Z,51.26
2022-09-02T02:08:11.764Z,51.26
2022-09-02T02:10:41.680Z,51.29
2022-09-02T02:13:08.489Z,51.15
2022-09-02T02:15:38.680Z,51.23
2022-09-02T02:18:05.402Z,51.52
2022-09-02T02:20:32.095Z,51.64
2022-09-02T02:22:58.655Z,51.40
2022-09-02T02:25:25.504Z,51.66
2022-09-02T02:27:52.781Z,51.94
2022-09-02T02:30:20.300Z,51.87
2022-09-02T02:32:47.357Z,51.61
2022-09-02T02:35:17.079Z,51.83
2022-09-02T02:37:44.651Z,52.05
2022-09-02T02:40:11.942Z,52.15
2022-09-02T02:42:39.626Z,52.04
2022-09-02T02:45:10.138Z,52.23
2022-09-02T02:47:43.370Z,51.83
2022-09-02T02:50:12.220Z,51.77
2022-09-02T02:52:41.179Z,51.94
2022-09-02T02:55:10.107Z,52.06
2022-09-02T02:57:39.062Z,52.19
2022-09-02T03:00:15.655Z,52.15
2022-09-02T03:02:42.303Z,52.08
2022-09-02T03:05:11.129Z,52.18
2022-09-02T03:07:37.669Z,52.23
2022-09-02T03:10:08.310Z,52.29
2022-09-02T03:12:36.735Z,52.34
2022-09-02T03:15:04.744Z,52.55
2022-09-02T03:17:31.511Z,52.18
2022-09-02T03:19:59.399Z,52.48
2022-09-02T03:22:27.415Z,52.63
2022-09-02T03:24:54.191Z,52.72
2022-09-02T03:27:20.718Z,52.46
2022-09-02T03:29:47.456Z,52.73
2022-09-02T03:32:14.735Z,52.91
2022-09-02T03:34:41.870Z,52.58
2022-09-02T03:37:09.783Z,52.35
2022-09-02T03:39:39.712Z,52.68
2022-09-02T03:42:06.887Z,52.64
2022-09-02T03:44:41.687Z,52.62
2022-09-02T03:47:08.922Z,52.80
2022-09-02T03:49:36.194Z,52.90
2022-09-02T03:52:03.020Z,53.15
2022-09-02T03:54:29.560Z,52.97
2022-09-02T03:56:56.128Z,53.23
2022-09-02T03:59:22.703Z,53.53
2022-09-02T04:01:49.335Z,53.31
2022-09-02T04:04:19.681Z,53.52
2022-09-02T04:06:48.902Z,53.68
2022-09-02T04:09:15.471Z,53.60
2022-09-02T04:11:42.914Z,53.93
2022-09-02T04:14:09.908Z,54.09
2022-09-02T04:16:37.829Z,54.24
2022-09-02T04:19:05.943Z,54.51
2022-09-02T04:21:35.208Z,54.18
2022-09-02T04:24:01.846Z,54.51
2022-09-02T04:26:28.446Z,54.42
2022-09-02T04:28:55.047Z,54.25
2022-09-02T04:31:25.798Z,54.41
2022-09-02T04:33:53.356Z,54.24
2022-09-02T04:36:20.911Z,54.03
2022-09-02T04:38:47.869Z,53.89
2022-09-02T04:41:18.575Z,54.11
2022-09-02T04:43:45.346Z,54.35
2022-09-02T04:46:16.591Z,54.06
2022-09-02T04:48:45.336Z,54.34
2022-09-02T04:51:16.618Z,53.89
2022-09-02T04:53:44.792Z,53.70
2022-09-02T04:56:15.129Z,53.75
2022-09-02T04:58:44.447Z,53.95
2022-09-02T05:01:17.986Z,54.01
2022-09-02T05:03:45.563Z,53.88
2022-09-02T05:06:15.701Z,54.08
2022-09-02T05:08:42.815Z,53.94
2022-09-02T05:11:13.462Z,54.25
2022-09-02T05:13:41.691Z,54.16
2022-09-02T05:16:08.517Z,53.87
2022-09-02T05:18:35.289Z,54.02
2022-09-02T05:21:06.639Z,53.41
2022-09-02T05:23:34.669Z,53.33
2022-09-02T05:26:07.893Z,53.36
2022-09-02T05:28:34.890Z,53.32
2022-09-02T05:31:12.802Z,53.46
2022-09-02T05:33:43.186Z,52.99
2022-09-02T05:36:20.458Z,52.61
2022-09-02T05:38:47.680Z,53.18
2022-09-02T05:41:18.288Z,52.89
2022-09-02T05:43:45.801Z,52.78
2022-09-02T05:46:17.668Z,52.66
2022-09-02T05:49:04.643Z,52.64
2022-09-02T05:51:32.555Z,52.56
2022-09-02T05:54:01.119Z,52.81
2022-09-02T05:56:28.125Z,52.86
2022-09-02T05:58:58.974Z,51.88
2022-09-02T06:01:27.526Z,51.35
2022-09-02T06:03:54.129Z,51.23
2022-09-02T06:06:23.035Z,51.25
2022-09-02T06:08:50.566Z,51.12
2022-09-02T06:11:18.169Z,51.09
2022-09-02T06:13:46.179Z,50.85
2022-09-02T06:16:19.390Z,50.65
2022-09-02T06:18:50.311Z,50.20
2022-09-02T06:21:17.427Z,49.66
2022-09-02T06:23:44.948Z,49.54
2022-09-02T06:26:13.191Z,49.77
2022-09-02T06:28:40.826Z,49.71
2022-09-02T06:31:10.416Z,50.13
2022-09-02T06:33:38.133Z,49.98
2022-09-02T06:36:12.241Z,49.83
2022-09-02T06:38:45.164Z,50.25
2022-09-02T06:41:16.953Z,49.69
2022-09-02T06:43:43.706Z,49.90
2022-09-02T06:46:20.180Z,49.22
2022-09-02T06:48:50.070Z,48.46
2022-09-02T06:51:22.129Z,47.78
2022-09-02T06:53:48.686Z,47.22
2022-09-02T06:56:15.806Z,46.85
2022-09-02T06:58:42.468Z,46.04
2022-09-02T07:01:17.161Z,45.06
2022-09-02T07:04:04.097Z,45.22
2022-09-02T07:06:37.204Z,45.17
2022-09-02T07:09:08.996Z,44.65
2022-09-02T07:11:36.827Z,44.78
2022-09-02T07:14:04.009Z,45.16
2022-09-02T07:16:34.318Z,43.38
2022-09-02T07:19:01.368Z,43.33
2022-09-02T07:21:29.183Z,42.29
2022-09-02T07:23:56.208Z,41.95
2022-09-02T07:26:22.869Z,41.47
2022-09-02T07:28:49.840Z,41.56
2022-09-02T07:31:17.083Z,40.66
2022-09-02T07:33:45.029Z,40.34
2022-09-02T07:36:16.718Z,40.47
2022-09-02T07:38:43.320Z,40.88
2022-09-02T07:41:10.591Z,39.92
2022-09-02T07:43:38.689Z,39.80
2022-09-02T07:46:05.881Z,39.44
2022-09-02T07:48:33.447Z,39.23
2022-09-02T07:51:00.203Z,38.24
2022-09-02T07:53:27.398Z,38.41
2022-09-02T07:55:54.020Z,38.02
2022-09-02T07:58:22.466Z,37.69
2022-09-02T08:00:50.490Z,38.20
2022-09-02T08:03:18.003Z,38.66
2022-09-02T08:05:47.146Z,38.94
2022-09-02T08:08:15.875Z,39.62
2022-09-02T08:10:43.272Z,38.40
2022-09-02T08:13:10.604Z,38.75
2022-09-02T08:15:38.879Z,38.98
2022-09-02T08:18:08.583Z,39.68
2022-09-02T08:20:44.420Z,39.60
2022-09-02T08:23:18.545Z,39.95
2022-09-02T08:25:52.485Z,39.60
2022-09-02T08:28:19.114Z,39.41
2022-09-02T08:30:46.058Z,39.45
2022-09-02T08:33:12.612Z,39.52
2022-09-02T08:35:39.322Z,39.12
2022-09-02T08:38:06.040Z,38.99
2022-09-02T08:40:39.540Z,39.33
2022-09-02T08:43:32.380Z,39.21
2022-09-02T08:46:05.223Z,39.33
2022-09-02T08:48:45.315Z,39.14
2022-09-02T08:51:27.079Z,38.87
2022-09-02T08:54:30.591Z,39.20
2022-09-02T08:56:58.125Z,39.26
2022-09-02T08:59:27.792Z,39.34
2022-09-02T09:02:32.907Z,39.25
2022-09-02T09:05:14.821Z,39.11
2022-09-02T09:08:04.870Z,39.44
2022-09-02T09:10:57.033Z,39.99
2022-09-02T09:13:47.185Z,40.06
2022-09-02T09:16:30.295Z,39.61
2022-09-02T09:19:11.735Z,39.66
2022-09-02T09:21:40.097Z,39.75
2022-09-02T09:24:28.138Z,39.37
2022-09-02T09:26:55.332Z,39.29
2022-09-02T09:29:22.416Z,38.53
2022-09-02T09:31:56.055Z,38.70
2022-09-02T09:34:22.967Z,38.88
2022-09-02T09:36:56.154Z,38.49
2022-09-02T09:39:24.757Z,38.45
2022-09-02T09:41:56.895Z,38.00
2022-09-02T09:44:40.788Z,37.69
2022-09-02T09:47:19.598Z,37.47
2022-09-02T09:49:51.441Z,37.03
2022-09-02T09:52:29.684Z,36.76
2022-09-02T09:55:12.620Z,35.58
2022-09-02T09:57:41.275Z,34.92
2022-09-02T10:00:22.261Z,34.32
2022-09-02T10:02:55.401Z,33.67
2022-09-02T10:05:24.799Z,33.81
2022-09-02T10:08:03.548Z,33.38
2022-09-02T10:10:32.907Z,33.27
2022-09-02T10:16:00.236Z,32.30
2022-09-02T10:18:34.841Z,32.62
2022-09-02T10:21:24.585Z,32.52
2022-09-02T10:24:09.452Z,31.65
2022-09-02T10:26:48.198Z,30.11
2022-09-02T10:29:34.882Z,30.29
2022-09-02T10:32:36.148Z,30.97
2022-09-02T10:35:17.619Z,30.56
2022-09-02T10:38:03.808Z,29.50
2022-09-02T10:40:45.746Z,29.42
2022-09-02T10:43:50.268Z,29.54
2022-09-02T10:46:25.426Z,30.80
2022-09-02T10:49:07.751Z,29.73
2022-09-02T10:51:43.384Z,29.88
2022-09-02T10:54:40.065Z,29.64
2022-09-02T10:57:14.415Z,28.53
2022-09-02T10:59:52.536Z,29.34
2022-09-02T11:02:35.342Z,29.37
2022-09-02T11:05:16.721Z,28.60
2022-09-02T11:07:46.347Z,29.11
2022-09-02T11:10:22.371Z,28.86
2022-09-02T11:13:05.243Z,29.35
2022-09-02T11:15:47.529Z,29.67
2022-09-02T11:18:42.088Z,29.31
2022-09-02T11:21:47.226Z,30.00
2022-09-02T11:24:20.085Z,29.49
2022-09-02T11:26:56.401Z,29.52
2022-09-02T11:29:44.829Z,29.20
2022-09-02T11:32:29.551Z,29.43
2022-09-02T11:34:59.657Z,29.39
2022-09-02T11:38:03.748Z,29.08
2022-09-02T11:40:39.201Z,30.31
2022-09-02T11:43:29.690Z,30.25
2022-09-02T11:46:33.060Z,30.02
2022-09-02T11:49:26.706Z,30.29
2022-09-02T11:51:59.113Z,29.51
2022-09-02T11:54:35.991Z,29.89
2022-09-02T11:57:05.807Z,30.25
2022-09-02T11:59:50.519Z,30.10
2022-09-02T12:02:50.971Z,30.36
2022-09-02T12:05:32.782Z,30.70
2022-09-02T12:08:04.296Z,30.61
2022-09-02T12:10:43.506Z,30.34
2022-09-02T12:13:11.419Z,29.34
2022-09-02T12:15:40.738Z,29.70
2022-09-02T12:18:28.444Z,29.34
2022-09-02T12:20:58.305Z,29.61
2022-09-02T12:23:46.850Z,30.30
2022-09-02T12:26:15.990Z,29.79
2022-09-02T12:28:47.124Z,29.38
2022-09-02T12:31:28.655Z,28.81
2022-09-02T12:33:55.208Z,28.61
2022-09-02T12:36:36.652Z,27.84
2022-09-02T12:39:28.348Z,27.73
2022-09-02T12:41:58.103Z,27.57
2022-09-02T12:44:44.879Z,27.57
2022-09-02T12:47:24.264Z,27.68
2022-09-02T12:50:04.943Z,27.78
2022-09-02T12:52:34.251Z,27.95
2022-09-02T12:55:14.452Z,27.58
2022-09-02T12:57:43.584Z,27.38
2022-09-02T13:00:28.383Z,26.84
2022-09-02T13:03:26.276Z,26.57
2022-09-02T13:06:06.428Z,26.78
2022-09-02T13:09:12.753Z,27.06
2022-09-02T13:12:07.171Z,27.31
2022-09-02T13:14:58.540Z,27.14
2022-09-02T13:17:46.644Z,26.68
2022-09-02T13:20:45.488Z,26.23
2022-09-02T13:23:31.248Z,27.10
2022-09-02T13:26:50.865Z,26.88
2022-09-02T13:29:44.756Z,26.45
2022-09-02T13:32:20.595Z,26.49
2022-09-02T13:34:49.837Z,26.62
2022-09-02T13:37:40.967Z,26.44
2022-09-02T13:40:26.806Z,26.29
2022-09-02T13:42:55.318Z,26.94
2022-09-02T13:45:25.293Z,26.60
2022-09-02T13:47:57.759Z,26.57
2022-09-02T13:50:30.394Z,26.03
2022-09-02T13:55:54.082Z,26.34
2022-09-02T13:58:29.376Z,26.92
2022-09-02T14:01:01.654Z,26.88
2022-09-02T14:03:32.780Z,26.01
2022-09-02T14:06:00.838Z,26.47
2022-09-02T14:08:29.313Z,26.32
2022-09-02T14:10:56.663Z,25.89
2022-09-02T14:13:23.668Z,26.46
2022-09-02T14:15:50.495Z,26.80
2022-09-02T14:18:18.886Z,26.52
2022-09-02T14:21:01.354Z,27.04
2022-09-02T14:23:33.394Z,26.53
2022-09-02T14:26:01.832Z,26.28
2022-09-02T14:28:34.319Z,26.70
2022-09-02T14:31:04.385Z,25.93
2022-09-02T14:33:36.537Z,26.23
2022-09-02T14:36:08.485Z,25.42
2022-09-02T14:38:47.074Z,26.01
2022-09-02T14:41:28.174Z,25.83
2022-09-02T14:44:00.413Z,25.58
2022-09-02T14:46:33.625Z,25.53
2022-09-02T14:49:09.779Z,26.60
2022-09-02T14:51:45.039Z,26.22
2022-09-02T14:54:11.740Z,25.54
2022-09-02T14:56:50.355Z,26.24
2022-09-02T14:59:17.912Z,25.67
2022-09-02T15:01:50.661Z,25.22
2022-09-02T15:04:19.457Z,25.46
2022-09-02T15:06:47.115Z,25.03
2022-09-02T15:09:18.083Z,25.60
2022-09-02T15:11:51.575Z,25.55
2022-09-02T15:14:18.136Z,25.62
2022-09-02T15:16:45.062Z,25.62
2022-09-02T15:19:11.745Z,25.63
2022-09-02T15:21:38.339Z,25.85
2022-09-02T15:24:05.375Z,25.80
2022-09-02T15:26:31.938Z,25.62
2022-09-02T15:28:58.476Z,25.60
2022-09-02T15:31:26.616Z,26.21
2022-09-02T15:33:53.411Z,26.10
2022-09-02T15:36:21.227Z,26.26
2022-09-02T15:38:47.808Z,26.55
2022-09-02T15:41:17.854Z,25.99
2022-09-02T15:43:46.073Z,26.11
2022-09-02T15:46:21.897Z,26.24
2022-09-02T15:48:49.222Z,26.01
2022-09-02T15:51:18.424Z,26.35
2022-09-02T15:53:45.012Z,26.56
2022-09-02T15:56:20.477Z,26.88
2022-09-02T15:58:47.637Z,27.44
2022-09-02T16:01:14.583Z,27.20
2022-09-02T16:03:41.246Z,27.45
2022-09-02T16:06:11.016Z,27.16
2022-09-02T16:08:37.720Z,26.98
2022-09-02T16:11:07.062Z,26.93
2022-09-02T16:13:35.016Z,27.34
2022-09-02T16:16:09.358Z,26.99
2022-09-02T16:18:37.289Z,27.22
2022-09-02T16:21:04.810Z,27.96
2022-09-02T16:23:31.916Z,27.30
2022-09-02T16:26:10.464Z,27.58
2022-09-02T16:28:38.604Z,27.63
2022-09-02T16:31:07.734Z,28.04
2022-09-02T16:33:36.009Z,27.26
2022-09-02T16:36:03.712Z,27.34
2022-09-02T16:38:30.287Z,27.47
2022-09-02T16:40:58.436Z,27.70
2022-09-02T16:43:25.895Z,27.56
2022-09-02T16:45:53.639Z,27.54
2022-09-02T16:48:25.634Z,27.45
2022-09-02T16:50:52.508Z,27.69
2022-09-02T16:53:19.212Z,27.74
2022-09-02T16:55:47.059Z,27.71
2022-09-02T16:58:16.703Z,27.97
2022-09-02T17:00:43.348Z,27.97
2022-09-02T17:03:10.971Z,27.90
2022-09-02T17:05:37.534Z,28.17
2022-09-02T17:08:05.344Z,28.03
2022-09-02T17:10:34.434Z,28.07
2022-09-02T17:13:01.506Z,28.35
2022-09-02T17:15:30.333Z,28.50
2022-09-02T17:17:56.959Z,28.32
2022-09-02T17:20:23.819Z,28.38
2022-09-02T17:22:51.426Z,28.22
2022-09-02T17:25:18.316Z,28.43
2022-09-02T17:27:44.964Z,28.03
2022-09-02T17:30:12.406Z,28.39
2022-09-02T17:32:39.805Z,28.53
2022-09-02T17:35:08.892Z,28.47
2022-09-02T17:37:37.514Z,28.71
2022-09-02T17:40:06.619Z,28.90
2022-09-02T17:42:34.090Z,28.97
2022-09-02T17:45:01.301Z,29.18
2022-09-02T17:47:31.699Z,28.91
2022-09-02T17:49:59.187Z,29.09
2022-09-02T17:52:25.938Z,28.86
2022-09-02T17:54:54.436Z,28.94
2022-09-02T17:57:28.230Z,29.23
2022-09-02T18:00:19.192Z,29.39
2022-09-02T18:03:15.332Z,29.19
2022-09-02T18:05:43.517Z,29.80
2022-09-02T18:08:33.831Z,29.85
2022-09-02T18:11:05.311Z,29.90
2022-09-02T18:13:55.215Z,29.95
2022-09-02T18:16:32.238Z,30.00
2022-09-02T18:19:49.952Z,30.36
2022-09-02T18:22:35.802Z,30.31
2022-09-02T18:25:33.431Z,30.67
2022-09-02T18:28:09.100Z,30.52
2022-09-02T18:30:49.309Z,30.79
2022-09-02T18:33:25.878Z,30.83
2022-09-02T18:35:52.405Z,31.14
2022-09-02T18:39:06.441Z,31.20
2022-09-02T18:42:06.619Z,31.25
2022-09-02T18:44:43.618Z,31.74
2022-09-02T18:47:14.953Z,31.65
2022-09-02T18:49:43.704Z,32.07
2022-09-02T18:52:11.505Z,31.90
2022-09-02T18:54:51.683Z,32.02
2022-09-02T18:57:18.255Z,32.22
2022-09-02T18:59:57.173Z,32.42
2022-09-02T19:02:50.288Z,32.60
2022-09-02T19:05:22.184Z,32.51
2022-09-02T19:08:15.870Z,32.71
2022-09-02T19:10:42.396Z,32.97
2022-09-02T19:13:09.158Z,33.08
2022-09-02T19:15:35.921Z,33.11
2022-09-02T19:18:03.427Z,33.28
2022-09-02T19:20:30.124Z,33.35
2022-09-02T19:23:02.070Z,33.31
2022-09-02T19:25:30.846Z,33.56
2022-09-02T19:28:02.543Z,33.64
2022-09-02T19:30:35.926Z,33.77
2022-09-02T19:33:06.740Z,33.82
2022-09-02T19:35:35.991Z,33.88
2022-09-02T19:38:02.926Z,33.88
2022-09-02T19:40:36.452Z,34.24
2022-09-02T19:43:05.233Z,34.06
2022-09-02T19:45:36.142Z,34.39
2022-09-02T19:48:06.941Z,34.44
2022-09-02T19:50:36.184Z,34.55
2022-09-02T19:53:02.859Z,34.18
2022-09-02T19:55:29.878Z,34.94
2022-09-02T19:57:56.382Z,34.79
2022-09-02T20:00:23.098Z,34.68
2022-09-02T20:02:51.124Z,34.81
2022-09-02T20:05:17.755Z,35.00
2022-09-02T20:07:44.328Z,34.88
2022-09-02T20:10:10.950Z,34.87
2022-09-02T20:12:37.544Z,34.61
2022-09-02T20:15:06.780Z,35.08
2022-09-02T20:17:33.459Z,35.22
2022-09-02T20:20:11.858Z,35.22
2022-09-02T20:22:38.437Z,35.48
2022-09-02T20:25:05.292Z,35.71
2022-09-02T20:28:04.737Z,35.87
2022-09-02T20:30:35.999Z,35.86
2022-09-02T20:33:22.398Z,35.86
2022-09-02T20:36:03.868Z,36.19
2022-09-02T20:38:45.258Z,36.40
2022-09-02T20:41:37.996Z,36.65
2022-09-02T20:44:13.646Z,36.85
2022-09-02T20:46:59.147Z,36.95
2022-09-02T20:49:54.229Z,37.19
2022-09-02T20:52:25.012Z,37.04
2022-09-02T20:55:03.893Z,37.45
2022-09-02T20:58:19.340Z,37.53
2022-09-02T21:01:08.615Z,37.54
2022-09-02T21:03:52.917Z,37.68
2022-09-02T21:06:24.301Z,37.92
2022-09-02T21:09:03.187Z,38.19
2022-09-02T21:11:38.130Z,38.40
2022-09-02T21:14:13.542Z,38.37
2022-09-02T21:16:49.009Z,38.56
2022-09-02T21:19:36.414Z,38.55
2022-09-02T21:22:23.367Z,38.76
2022-09-02T21:25:02.957Z,39.04
2022-09-02T21:27:45.221Z,39.19
2022-09-02T21:30:18.155Z,39.46
2022-09-02T21:32:53.643Z,39.62
2022-09-02T21:35:24.326Z,39.79
2022-09-02T21:38:02.612Z,39.87
2022-09-02T21:40:59.829Z,40.14
2022-09-02T21:43:32.337Z,40.56
2022-09-02T21:46:22.095Z,40.58
2022-09-02T21:48:59.079Z,40.32
2022-09-02T21:51:39.053Z,40.50
2022-09-02T21:54:29.081Z,40.78
2022-09-02T21:57:29.552Z,40.69
2022-09-02T22:00:02.946Z,41.24
2022-09-02T22:02:50.195Z,41.32
2022-09-02T22:05:32.141Z,41.25
2022-09-02T22:08:17.303Z,41.65
2022-09-02T22:10:59.283Z,41.34
2022-09-02T22:13:30.012Z,41.83
2022-09-02T22:16:05.034Z,42.18
2022-09-02T22:18:41.020Z,42.51
2022-09-02T22:21:31.406Z,42.53
2022-09-02T22:24:00.960Z,42.74
2022-09-02T22:26:38.634Z,43.08
2022-09-02T22:29:13.298Z,43.13
2022-09-02T22:31:43.109Z,43.41
2022-09-02T22:34:10.598Z,43.53
2022-09-02T22:36:49.787Z,43.57
2022-09-02T22:39:17.401Z,43.58
2022-09-02T22:41:56.165Z,43.84
2022-09-02T22:44:49.362Z,44.05
2022-09-02T22:47:39.088Z,44.12
2022-09-02T22:50:29.147Z,43.96
2022-09-02T22:52:55.988Z,43.91
2022-09-02T22:55:29.379Z,44.41
2022-09-02T22:58:30.889Z,44.18
2022-09-02T23:01:05.649Z,44.34
2022-09-02T23:03:43.044Z,44.61
2022-09-02T23:06:30.258Z,44.34
2022-09-02T23:09:05.638Z,44.48
2022-09-02T23:11:53.219Z,44.84
2022-09-02T23:14:32.009Z,44.71
2022-09-02T23:17:20.785Z,45.00
2022-09-02T23:19:50.036Z,45.46
2022-09-02T23:22:43.150Z,45.12
2022-09-02T23:25:50.956Z,45.08
2022-09-02T23:28:19.205Z,45.16
2022-09-02T23:31:01.143Z,45.44
2022-09-02T23:33:51.340Z,45.73
2022-09-02T23:36:35.239Z,45.71
2022-09-02T23:39:19.051Z,45.83
2022-09-02T23:41:46.210Z,46.12
2022-09-02T23:44:12.843Z,45.96
2022-09-02T23:46:57.994Z,45.88
2022-09-02T23:49:49.330Z,45.98
2022-09-02T23:52:34.056Z,46.00
2022-09-02T23:55:21.644Z,46.39
2022-09-02T23:58:06.906Z,46.18
